Time;durP1;ratioP1;P1;durP2;ratioP2;P2;SDS_P1;SDS_P2;PMS_P1;PMS_P2;Temp;Humidity;BMP_temperature;BMP_pressure;BME280_temperature;BME280_humidity;BME280_pressure;Samples;Min_cycle;Max_cycle;Signal;HPM_P1;HPM_P2
2022/02/24 00:00:51;;;;;;;5.85;4.1;;;;;;;-0.86;53.62109;95601.05;;;;
2022/02/24 00:01:51;;;;;;;5.85;4.1;;;;;;;-0.86;53.62109;95601.05;;;;
2022/02/24 00:02:52;;;;;;;5.25;3.05;;;;;;;-0.93;54.62988;95601.34;;;;
2022/02/24 00:03:52;;;;;;;5.25;3.05;;;;;;;-0.93;54.62988;95601.34;;;;
2022/02/24 00:04:54;;;;;;;5.25;3.05;;;;;;;-0.93;54.62988;95601.34;;;;
2022/02/24 00:05:56;;;;;;;5.25;3.05;;;;;;;-0.93;54.62988;95601.34;;;;
2022/02/24 00:06:56;;;;;;;5.25;3.05;;;;;;;-0.93;54.62988;95601.34;;;;
2022/02/24 00:07:59;;;;;;;5.25;3.05;;;;;;;-0.93;54.62988;95601.34;;;;
2022/02/24 00:08:59;;;;;;;5.25;3.05;;;;;;;-0.93;54.62988;95601.34;;;;
2022/02/24 00:10:00;;;;;;;5.25;3.05;;;;;;;-0.93;54.62988;95601.34;;;;
2022/02/24 00:11:01;;;;;;;5.25;3.05;;;;;;;-0.93;54.62988;95601.34;;;;
2022/02/24 00:12:02;;;;;;;5.25;3.05;;;;;;;-0.93;54.62988;95601.34;;;;
2022/02/24 00:13:04;;;;;;;5.199999;3.25;;;;;;;-0.94;55.37207;95602.34;;;;
2022/02/24 00:14:05;;;;;;;5.199999;3.25;;;;;;;-0.94;55.37207;95602.34;;;;
2022/02/24 00:15:05;;;;;;;5.199999;3.25;;;;;;;-0.94;55.37207;95602.34;;;;
2022/02/24 00:16:07;;;;;;;5.199999;3.25;;;;;;;-0.94;55.37207;95602.34;;;;
2022/02/24 00:17:08;;;;;;;5.199999;3.25;;;;;;;-0.94;55.37207;95602.34;;;;
2022/02/24 00:18:08;;;;;;;5.199999;3.25;;;;;;;-0.94;55.37207;95602.34;;;;
2022/02/24 00:19:09;;;;;;;5.199999;3.25;;;;;;;-0.94;55.37207;95602.34;;;;
2022/02/24 00:20:09;;;;;;;5.199999;3.25;;;;;;;-0.94;55.37207;95602.34;;;;
2022/02/24 00:21:11;;;;;;;5.199999;3.25;;;;;;;-0.94;55.37207;95602.34;;;;
2022/02/24 00:22:12;;;;;;;5.199999;3.25;;;;;;;-0.94;55.37207;95602.34;;;;
2022/02/24 00:23:13;;;;;;;5.199999;3.25;;;;;;;-0.94;55.37207;95602.34;;;;
2022/02/24 00:24:13;;;;;;;7.5;2.8;;;;;;;-1.02;55.90625;95605.78;;;;
2022/02/24 00:25:14;;;;;;;7.5;2.8;;;;;;;-1.02;55.90625;95605.78;;;;
2022/02/24 00:26:14;;;;;;;7.5;2.8;;;;;;;-1.02;55.90625;95605.78;;;;
2022/02/24 00:27:15;;;;;;;7.5;2.8;;;;;;;-1.02;55.90625;95605.78;;;;
2022/02/24 00:28:15;;;;;;;7.5;2.8;;;;;;;-1.02;55.90625;95605.78;;;;
2022/02/24 00:29:17;;;;;;;7.5;2.8;;;;;;;-1.02;55.90625;95605.78;;;;
2022/02/24 00:30:17;;;;;;;7.5;2.8;;;;;;;-1.02;55.90625;95605.78;;;;
2022/02/24 00:31:18;;;;;;;7.5;2.8;;;;;;;-1.02;55.90625;95605.78;;;;
2022/02/24 00:32:18;;;;;;;7.5;2.8;;;;;;;-1.02;55.90625;95605.78;;;;
2022/02/24 00:33:19;;;;;;;7.5;2.8;;;;;;;-1.02;55.90625;95605.78;;;;
2022/02/24 00:34:22;;;;;;;7.5;2.8;;;;;;;-1.02;55.90625;95605.78;;;;
2022/02/24 00:35:23;;;;;;;4.349999;2.75;;;;;;;-1.02;56.54395;95603.2;;;;
2022/02/24 00:36:24;;;;;;;4.349999;2.75;;;;;;;-1.02;56.54395;95603.2;;;;
2022/02/24 00:37:24;;;;;;;4.349999;2.75;;;;;;;-1.02;56.54395;95603.2;;;;
2022/02/24 00:38:25;;;;;;;4.349999;2.75;;;;;;;-1.02;56.54395;95603.2;;;;
2022/02/24 00:39:25;;;;;;;4.349999;2.75;;;;;;;-1.02;56.54395;95603.2;;;;
2022/02/24 00:40:26;;;;;;;4.349999;2.75;;;;;;;-1.02;56.54395;95603.2;;;;
2022/02/24 00:41:26;;;;;;;4.349999;2.75;;;;;;;-1.02;56.54395;95603.2;;;;
2022/02/24 00:42:27;;;;;;;4.349999;2.75;;;;;;;-1.02;56.54395;95603.2;;;;
2022/02/24 00:43:27;;;;;;;4.349999;2.75;;;;;;;-1.02;56.54395;95603.2;;;;
2022/02/24 00:44:28;;;;;;;4.349999;2.75;;;;;;;-1.02;56.54395;95603.2;;;;
2022/02/24 00:45:30;;;;;;;4.950001;2.5;;;;;;;-0.99;57.10352;95594.86;;;;
2022/02/24 00:46:30;;;;;;;4.950001;2.5;;;;;;;-0.99;57.10352;95594.86;;;;
2022/02/24 00:47:31;;;;;;;4.950001;2.5;;;;;;;-0.99;57.10352;95594.86;;;;
2022/02/24 00:48:31;;;;;;;4.950001;2.5;;;;;;;-0.99;57.10352;95594.86;;;;
2022/02/24 00:49:31;;;;;;;4.950001;2.5;;;;;;;-0.99;57.10352;95594.86;;;;
2022/02/24 00:50:33;;;;;;;4.950001;2.5;;;;;;;-0.99;57.10352;95594.86;;;;
2022/02/24 00:51:33;;;;;;;4.950001;2.5;;;;;;;-0.99;57.10352;95594.86;;;;
2022/02/24 00:52:35;;;;;;;4.950001;2.5;;;;;;;-0.99;57.10352;95594.86;;;;
2022/02/24 00:53:41;;;;;;;4.950001;2.5;;;;;;;-0.99;57.10352;95594.86;;;;
2022/02/24 00:54:41;;;;;;;4.950001;2.5;;;;;;;-0.99;57.10352;95594.86;;;;
2022/02/24 00:55:42;;;;;;;4.950001;2.5;;;;;;;-0.99;57.10352;95594.86;;;;
2022/02/24 00:56:42;;;;;;;4.2;2.95;;;;;;;-0.97;57.55664;95592.88;;;;
2022/02/24 00:57:43;;;;;;;4.2;2.95;;;;;;;-0.97;57.55664;95592.88;;;;
2022/02/24 00:58:43;;;;;;;4.2;2.95;;;;;;;-0.97;57.55664;95592.88;;;;
2022/02/24 00:59:44;;;;;;;4.2;2.95;;;;;;;-0.97;57.55664;95592.88;;;;
2022/02/24 01:00:45;;;;;;;4.2;2.95;;;;;;;-0.97;57.55664;95592.88;;;;
2022/02/24 01:01:45;;;;;;;4.2;2.95;;;;;;;-0.97;57.55664;95592.88;;;;
2022/02/24 01:02:46;;;;;;;4.2;2.95;;;;;;;-0.97;57.55664;95592.88;;;;
2022/02/24 01:03:47;;;;;;;4.2;2.95;;;;;;;-0.97;57.55664;95592.88;;;;
2022/02/24 01:04:47;;;;;;;4.2;2.95;;;;;;;-0.97;57.55664;95592.88;;;;
2022/02/24 01:05:48;;;;;;;4.2;2.95;;;;;;;-0.97;57.55664;95592.88;;;;
2022/02/24 01:06:48;;;;;;;3.65;2.75;;;;;;;-0.95;58.13477;95586.94;;;;
2022/02/24 01:07:49;;;;;;;3.65;2.75;;;;;;;-0.95;58.13477;95586.94;;;;
2022/02/24 01:08:49;;;;;;;3.65;2.75;;;;;;;-0.95;58.13477;95586.94;;;;
2022/02/24 01:09:50;;;;;;;3.65;2.75;;;;;;;-0.95;58.13477;95586.94;;;;
2022/02/24 01:10:50;;;;;;;3.65;2.75;;;;;;;-0.95;58.13477;95586.94;;;;
2022/02/24 01:11:51;;;;;;;3.65;2.75;;;;;;;-0.95;58.13477;95586.94;;;;
2022/02/24 01:12:51;;;;;;;3.65;2.75;;;;;;;-0.95;58.13477;95586.94;;;;
2022/02/24 01:13:52;;;;;;;3.65;2.75;;;;;;;-0.95;58.13477;95586.94;;;;
2022/02/24 01:14:52;;;;;;;3.65;2.75;;;;;;;-0.95;58.13477;95586.94;;;;
2022/02/24 01:15:53;;;;;;;3.65;2.75;;;;;;;-0.95;58.13477;95586.94;;;;
2022/02/24 01:16:54;;;;;;;3.65;2.75;;;;;;;-0.95;58.13477;95586.94;;;;
2022/02/24 01:17:54;;;;;;;3.299999;3;;;;;;;-0.92;58.72461;95582.73;;;;
2022/02/24 01:18:54;;;;;;;3.299999;3;;;;;;;-0.92;58.72461;95582.73;;;;
2022/02/24 01:19:55;;;;;;;3.299999;3;;;;;;;-0.92;58.72461;95582.73;;;;
2022/02/24 01:20:56;;;;;;;3.299999;3;;;;;;;-0.92;58.72461;95582.73;;;;
2022/02/24 01:21:56;;;;;;;3.299999;3;;;;;;;-0.92;58.72461;95582.73;;;;
2022/02/24 01:22:57;;;;;;;3.299999;3;;;;;;;-0.92;58.72461;95582.73;;;;
2022/02/24 01:23:57;;;;;;;3.299999;3;;;;;;;-0.92;58.72461;95582.73;;;;
2022/02/24 01:24:58;;;;;;;3.299999;3;;;;;;;-0.92;58.72461;95582.73;;;;
2022/02/24 01:25:59;;;;;;;3.299999;3;;;;;;;-0.92;58.72461;95582.73;;;;
2022/02/24 01:27:00;;;;;;;3.299999;3;;;;;;;-0.92;58.72461;95582.73;;;;
2022/02/24 01:28:00;;;;;;;4.350001;3.1;;;;;;;-0.76;59.27148;95569.06;;;;
2022/02/24 01:29:01;;;;;;;4.350001;3.1;;;;;;;-0.76;59.27148;95569.06;;;;
2022/02/24 01:30:02;;;;;;;4.350001;3.1;;;;;;;-0.76;59.27148;95569.06;;;;
2022/02/24 01:31:03;;;;;;;4.350001;3.1;;;;;;;-0.76;59.27148;95569.06;;;;
2022/02/24 01:32:04;;;;;;;4.350001;3.1;;;;;;;-0.76;59.27148;95569.06;;;;
2022/02/24 01:33:05;;;;;;;4.350001;3.1;;;;;;;-0.76;59.27148;95569.06;;;;
2022/02/24 01:34:05;;;;;;;4.350001;3.1;;;;;;;-0.76;59.27148;95569.06;;;;
2022/02/24 01:35:06;;;;;;;4.350001;3.1;;;;;;;-0.76;59.27148;95569.06;;;;
2022/02/24 01:36:07;;;;;;;4.350001;3.1;;;;;;;-0.76;59.27148;95569.06;;;;
2022/02/24 01:37:08;;;;;;;4.350001;3.1;;;;;;;-0.76;59.27148;95569.06;;;;
2022/02/24 01:38:09;;;;;;;4.350001;3.1;;;;;;;-0.76;59.27148;95569.06;;;;
2022/02/24 01:39:09;;;;;;;4;3.149999;;;;;;;-0.73;59.77637;95554.14;;;;
2022/02/24 01:40:10;;;;;;;4;3.149999;;;;;;;-0.73;59.77637;95554.14;;;;
2022/02/24 01:41:12;;;;;;;4;3.149999;;;;;;;-0.73;59.77637;95554.14;;;;
2022/02/24 01:42:13;;;;;;;4;3.149999;;;;;;;-0.73;59.77637;95554.14;;;;
2022/02/24 01:43:13;;;;;;;4;3.149999;;;;;;;-0.73;59.77637;95554.14;;;;
2022/02/24 01:44:14;;;;;;;4;3.149999;;;;;;;-0.73;59.77637;95554.14;;;;
2022/02/24 01:45:15;;;;;;;4;3.149999;;;;;;;-0.73;59.77637;95554.14;;;;
2022/02/24 01:46:15;;;;;;;4;3.149999;;;;;;;-0.73;59.77637;95554.14;;;;
2022/02/24 01:47:16;;;;;;;4;3.149999;;;;;;;-0.73;59.77637;95554.14;;;;
2022/02/24 01:48:17;;;;;;;4;3.149999;;;;;;;-0.73;59.77637;95554.14;;;;
2022/02/24 01:49:20;;;;;;;4.849999;3.75;;;;;;;-0.73;60.32129;95543.13;;;;
2022/02/24 01:50:21;;;;;;;4.849999;3.75;;;;;;;-0.73;60.32129;95543.13;;;;
2022/02/24 01:51:22;;;;;;;4.849999;3.75;;;;;;;-0.73;60.32129;95543.13;;;;
2022/02/24 01:52:22;;;;;;;4.849999;3.75;;;;;;;-0.73;60.32129;95543.13;;;;
2022/02/24 01:53:23;;;;;;;4.849999;3.75;;;;;;;-0.73;60.32129;95543.13;;;;
2022/02/24 01:54:24;;;;;;;4.849999;3.75;;;;;;;-0.73;60.32129;95543.13;;;;
2022/02/24 01:55:24;;;;;;;4.849999;3.75;;;;;;;-0.73;60.32129;95543.13;;;;
2022/02/24 01:56:25;;;;;;;4.849999;3.75;;;;;;;-0.73;60.32129;95543.13;;;;
2022/02/24 01:57:26;;;;;;;4.849999;3.75;;;;;;;-0.73;60.32129;95543.13;;;;
2022/02/24 01:58:26;;;;;;;4.849999;3.75;;;;;;;-0.73;60.32129;95543.13;;;;
2022/02/24 01:59:27;;;;;;;4.849999;3.75;;;;;;;-0.73;60.32129;95543.13;;;;
2022/02/24 02:00:28;;;;;;;3.3;2.7;;;;;;;-0.76;60.88184;95532.44;;;;
2022/02/24 02:01:29;;;;;;;3.3;2.7;;;;;;;-0.76;60.88184;95532.44;;;;
2022/02/24 02:02:30;;;;;;;3.3;2.7;;;;;;;-0.76;60.88184;95532.44;;;;
2022/02/24 02:03:30;;;;;;;3.3;2.7;;;;;;;-0.76;60.88184;95532.44;;;;
2022/02/24 02:04:31;;;;;;;3.3;2.7;;;;;;;-0.76;60.88184;95532.44;;;;
2022/02/24 02:05:32;;;;;;;3.3;2.7;;;;;;;-0.76;60.88184;95532.44;;;;
2022/02/24 02:06:34;;;;;;;3.3;2.7;;;;;;;-0.76;60.88184;95532.44;;;;
2022/02/24 02:07:34;;;;;;;3.3;2.7;;;;;;;-0.76;60.88184;95532.44;;;;
2022/02/24 02:08:35;;;;;;;3.3;2.7;;;;;;;-0.76;60.88184;95532.44;;;;
2022/02/24 02:09:35;;;;;;;3.3;2.7;;;;;;;-0.76;60.88184;95532.44;;;;
2022/02/24 02:10:36;;;;;;;4.55;2.9;;;;;;;-0.79;60.25;95530.5;;;;
2022/02/24 02:11:37;;;;;;;4.55;2.9;;;;;;;-0.79;60.25;95530.5;;;;
2022/02/24 02:12:38;;;;;;;4.55;2.9;;;;;;;-0.79;60.25;95530.5;;;;
2022/02/24 02:13:47;;;;;;;4.55;2.9;;;;;;;-0.79;60.25;95530.5;;;;
2022/02/24 02:14:48;;;;;;;4.55;2.9;;;;;;;-0.79;60.25;95530.5;;;;
2022/02/24 02:15:48;;;;;;;4.55;2.9;;;;;;;-0.79;60.25;95530.5;;;;
2022/02/24 02:16:49;;;;;;;4.55;2.9;;;;;;;-0.79;60.25;95530.5;;;;
2022/02/24 02:17:51;;;;;;;4.55;2.9;;;;;;;-0.79;60.25;95530.5;;;;
2022/02/24 02:18:51;;;;;;;4.55;2.9;;;;;;;-0.79;60.25;95530.5;;;;
2022/02/24 02:19:52;;;;;;;4.55;2.9;;;;;;;-0.79;60.25;95530.5;;;;
2022/02/24 02:20:52;;;;;;;4.55;2.9;;;;;;;-0.79;60.25;95530.5;;;;
2022/02/24 02:21:53;;;;;;;4.55;2.9;;;;;;;-0.79;60.25;95530.5;;;;
2022/02/24 02:22:53;;;;;;;4.55;2.9;;;;;;;-0.79;60.25;95530.5;;;;
2022/02/24 02:23:54;;;;;;;4.55;2.9;;;;;;;-0.79;60.25;95530.5;;;;
2022/02/24 02:24:55;;;;;;;4.55;2.9;;;;;;;-0.79;60.25;95530.5;;;;
2022/02/24 02:25:58;;;;;;;4.55;2.9;;;;;;;-0.79;60.25;95530.5;;;;
2022/02/24 02:26:58;;;;;;;4.55;2.9;;;;;;;-0.79;60.25;95530.5;;;;
2022/02/24 02:28:00;;;;;;;4.55;2.9;;;;;;;-0.79;60.25;95530.5;;;;
2022/02/24 02:29:00;;;;;;;4.55;2.9;;;;;;;-0.79;60.25;95530.5;;;;
2022/02/24 02:30:03;;;;;;;4.55;2.9;;;;;;;-0.79;60.25;95530.5;;;;
2022/02/24 02:31:05;;;;;;;4.55;2.9;;;;;;;-0.79;60.25;95530.5;;;;
2022/02/24 02:32:06;;;;;;;5.25;3.4;;;;;;;-0.9;60.86133;95512.27;;;;
2022/02/24 02:33:07;;;;;;;5.25;3.4;;;;;;;-0.9;60.86133;95512.27;;;;
2022/02/24 02:34:08;;;;;;;5.25;3.4;;;;;;;-0.9;60.86133;95512.27;;;;
2022/02/24 02:35:11;;;;;;;5.25;3.4;;;;;;;-0.9;60.86133;95512.27;;;;
2022/02/24 02:36:12;;;;;;;5.25;3.4;;;;;;;-0.9;60.86133;95512.27;;;;
2022/02/24 02:37:13;;;;;;;5.25;3.4;;;;;;;-0.9;60.86133;95512.27;;;;
2022/02/24 02:38:13;;;;;;;5.25;3.4;;;;;;;-0.9;60.86133;95512.27;;;;
2022/02/24 02:39:14;;;;;;;5.25;3.4;;;;;;;-0.9;60.86133;95512.27;;;;
2022/02/24 02:40:15;;;;;;;5.25;3.4;;;;;;;-0.9;60.86133;95512.27;;;;
2022/02/24 02:41:16;;;;;;;5.25;3.4;;;;;;;-0.9;60.86133;95512.27;;;;
2022/02/24 02:42:17;;;;;;;5.25;3.4;;;;;;;-0.9;60.86133;95512.27;;;;
2022/02/24 02:43:17;;;;;;;4;3.6;;;;;;;-0.94;61.52539;95502.49;;;;
2022/02/24 02:44:18;;;;;;;4;3.6;;;;;;;-0.94;61.52539;95502.49;;;;
2022/02/24 02:45:18;;;;;;;4;3.6;;;;;;;-0.94;61.52539;95502.49;;;;
2022/02/24 02:46:19;;;;;;;4;3.6;;;;;;;-0.94;61.52539;95502.49;;;;
2022/02/24 02:47:20;;;;;;;4;3.6;;;;;;;-0.94;61.52539;95502.49;;;;
2022/02/24 02:48:20;;;;;;;4;3.6;;;;;;;-0.94;61.52539;95502.49;;;;
2022/02/24 02:49:20;;;;;;;4;3.6;;;;;;;-0.94;61.52539;95502.49;;;;
2022/02/24 02:50:21;;;;;;;4;3.6;;;;;;;-0.94;61.52539;95502.49;;;;
2022/02/24 02:51:21;;;;;;;4;3.6;;;;;;;-0.94;61.52539;95502.49;;;;
2022/02/24 02:52:22;;;;;;;4;3.6;;;;;;;-0.94;61.52539;95502.49;;;;
2022/02/24 02:53:23;;;;;;;3.65;3.35;;;;;;;-0.96;62.08691;95497.42;;;;
2022/02/24 02:54:23;;;;;;;3.65;3.35;;;;;;;-0.96;62.08691;95497.42;;;;
2022/02/24 02:55:24;;;;;;;3.65;3.35;;;;;;;-0.96;62.08691;95497.42;;;;
2022/02/24 02:56:24;;;;;;;3.65;3.35;;;;;;;-0.96;62.08691;95497.42;;;;
2022/02/24 02:57:25;;;;;;;3.65;3.35;;;;;;;-0.96;62.08691;95497.42;;;;
2022/02/24 02:58:25;;;;;;;3.65;3.35;;;;;;;-0.96;62.08691;95497.42;;;;
2022/02/24 02:59:26;;;;;;;3.65;3.35;;;;;;;-0.96;62.08691;95497.42;;;;
2022/02/24 03:00:26;;;;;;;3.65;3.35;;;;;;;-0.96;62.08691;95497.42;;;;
2022/02/24 03:01:27;;;;;;;3.65;3.35;;;;;;;-0.96;62.08691;95497.42;;;;
2022/02/24 03:02:28;;;;;;;3.65;3.35;;;;;;;-0.96;62.08691;95497.42;;;;
2022/02/24 03:03:28;;;;;;;3.65;3.35;;;;;;;-0.96;62.08691;95497.42;;;;
2022/02/24 03:04:29;;;;;;;3.5;3.15;;;;;;;-0.95;62.66309;95494.19;;;;
2022/02/24 03:05:29;;;;;;;3.5;3.15;;;;;;;-0.95;62.66309;95494.19;;;;
2022/02/24 03:06:30;;;;;;;3.5;3.15;;;;;;;-0.95;62.66309;95494.19;;;;
2022/02/24 03:07:30;;;;;;;3.5;3.15;;;;;;;-0.95;62.66309;95494.19;;;;
2022/02/24 03:08:31;;;;;;;3.5;3.15;;;;;;;-0.95;62.66309;95494.19;;;;
2022/02/24 03:09:32;;;;;;;3.5;3.15;;;;;;;-0.95;62.66309;95494.19;;;;
2022/02/24 03:10:32;;;;;;;3.5;3.15;;;;;;;-0.95;62.66309;95494.19;;;;
2022/02/24 03:11:34;;;;;;;3.5;3.15;;;;;;;-0.95;62.66309;95494.19;;;;
2022/02/24 03:12:36;;;;;;;3.5;3.15;;;;;;;-0.95;62.66309;95494.19;;;;
2022/02/24 03:13:37;;;;;;;3.5;3.15;;;;;;;-0.95;62.66309;95494.19;;;;
2022/02/24 03:14:38;;;;;;;3.6;3.2;;;;;;;-0.86;63.17773;95476.48;;;;
2022/02/24 03:15:39;;;;;;;3.6;3.2;;;;;;;-0.86;63.17773;95476.48;;;;
2022/02/24 03:16:39;;;;;;;3.6;3.2;;;;;;;-0.86;63.17773;95476.48;;;;
2022/02/24 03:17:41;;;;;;;3.6;3.2;;;;;;;-0.86;63.17773;95476.48;;;;
2022/02/24 03:18:43;;;;;;;3.6;3.2;;;;;;;-0.86;63.17773;95476.48;;;;
2022/02/24 03:19:44;;;;;;;3.6;3.2;;;;;;;-0.86;63.17773;95476.48;;;;
2022/02/24 03:20:44;;;;;;;3.6;3.2;;;;;;;-0.86;63.17773;95476.48;;;;
2022/02/24 03:21:45;;;;;;;3.6;3.2;;;;;;;-0.86;63.17773;95476.48;;;;
2022/02/24 03:22:45;;;;;;;3.6;3.2;;;;;;;-0.86;63.17773;95476.48;;;;
2022/02/24 03:23:46;;;;;;;3.6;3.2;;;;;;;-0.86;63.17773;95476.48;;;;
2022/02/24 03:24:46;;;;;;;3.6;3.2;;;;;;;-0.86;63.17773;95476.48;;;;
2022/02/24 03:25:47;;;;;;;3.6;3.2;;;;;;;-0.86;63.17773;95476.48;;;;
2022/02/24 03:26:47;;;;;;;3.6;3.2;;;;;;;-0.86;63.17773;95476.48;;;;
2022/02/24 03:27:47;;;;;;;3.6;3.2;;;;;;;-0.86;63.17773;95476.48;;;;
2022/02/24 03:28:48;;;;;;;3.6;3.2;;;;;;;-0.86;63.17773;95476.48;;;;
2022/02/24 03:29:49;;;;;;;3.6;3.2;;;;;;;-0.86;63.17773;95476.48;;;;
2022/02/24 03:30:49;;;;;;;3.6;3.2;;;;;;;-0.86;63.17773;95476.48;;;;
2022/02/24 03:31:49;;;;;;;3.6;3.2;;;;;;;-0.86;63.17773;95476.48;;;;
2022/02/24 03:32:51;;;;;;;3.6;3.2;;;;;;;-0.86;63.17773;95476.48;;;;
2022/02/24 03:33:51;;;;;;;3.6;3.2;;;;;;;-0.86;63.17773;95476.48;;;;
2022/02/24 03:34:52;;;;;;;3.6;3.2;;;;;;;-0.86;63.17773;95476.48;;;;
2022/02/24 03:35:52;;;;;;;3.6;3.2;;;;;;;-0.86;63.17773;95476.48;;;;
2022/02/24 03:36:53;;;;;;;2.750001;2.45;;;;;;;-0.57;64.03809;95457.84;;;;
2022/02/24 03:37:53;;;;;;;2.750001;2.45;;;;;;;-0.57;64.03809;95457.84;;;;
2022/02/24 03:38:54;;;;;;;2.750001;2.45;;;;;;;-0.57;64.03809;95457.84;;;;
2022/02/24 03:39:54;;;;;;;2.750001;2.45;;;;;;;-0.57;64.03809;95457.84;;;;
2022/02/24 03:40:55;;;;;;;2.750001;2.45;;;;;;;-0.57;64.03809;95457.84;;;;
2022/02/24 03:41:55;;;;;;;2.750001;2.45;;;;;;;-0.57;64.03809;95457.84;;;;
2022/02/24 03:42:56;;;;;;;2.750001;2.45;;;;;;;-0.57;64.03809;95457.84;;;;
2022/02/24 03:43:56;;;;;;;2.750001;2.45;;;;;;;-0.57;64.03809;95457.84;;;;
2022/02/24 03:44:57;;;;;;;2.750001;2.45;;;;;;;-0.57;64.03809;95457.84;;;;
2022/02/24 03:45:57;;;;;;;2.750001;2.45;;;;;;;-0.57;64.03809;95457.84;;;;
2022/02/24 03:46:58;;;;;;;2.900001;2.1;;;;;;;-0.48;63.3291;95452.52;;;;
2022/02/24 03:47:58;;;;;;;2.900001;2.1;;;;;;;-0.48;63.3291;95452.52;;;;
2022/02/24 03:48:59;;;;;;;2.900001;2.1;;;;;;;-0.48;63.3291;95452.52;;;;
2022/02/24 03:50:00;;;;;;;2.900001;2.1;;;;;;;-0.48;63.3291;95452.52;;;;
2022/02/24 03:51:00;;;;;;;2.900001;2.1;;;;;;;-0.48;63.3291;95452.52;;;;
2022/02/24 03:52:01;;;;;;;2.900001;2.1;;;;;;;-0.48;63.3291;95452.52;;;;
2022/02/24 03:53:02;;;;;;;2.900001;2.1;;;;;;;-0.48;63.3291;95452.52;;;;
2022/02/24 03:54:03;;;;;;;2.900001;2.1;;;;;;;-0.48;63.3291;95452.52;;;;
2022/02/24 03:55:03;;;;;;;2.900001;2.1;;;;;;;-0.48;63.3291;95452.52;;;;
2022/02/24 03:56:05;;;;;;;2.900001;2.1;;;;;;;-0.48;63.3291;95452.52;;;;
2022/02/24 03:57:05;;;;;;;2.900001;2.1;;;;;;;-0.48;63.3291;95452.52;;;;
2022/02/24 03:58:06;;;;;;;2.8;2.2;;;;;;;-0.51;62.84375;95448.4;;;;
2022/02/24 03:59:06;;;;;;;2.8;2.2;;;;;;;-0.51;62.84375;95448.4;;;;
2022/02/24 04:00:07;;;;;;;2.8;2.2;;;;;;;-0.51;62.84375;95448.4;;;;
2022/02/24 04:01:09;;;;;;;2.8;2.2;;;;;;;-0.51;62.84375;95448.4;;;;
2022/02/24 04:02:10;;;;;;;2.8;2.2;;;;;;;-0.51;62.84375;95448.4;;;;
2022/02/24 04:03:11;;;;;;;2.8;2.2;;;;;;;-0.51;62.84375;95448.4;;;;
2022/02/24 04:04:14;;;;;;;2.8;2.2;;;;;;;-0.51;62.84375;95448.4;;;;
2022/02/24 04:05:16;;;;;;;2.8;2.2;;;;;;;-0.51;62.84375;95448.4;;;;
2022/02/24 04:06:16;;;;;;;2.8;2.2;;;;;;;-0.51;62.84375;95448.4;;;;
2022/02/24 04:07:16;;;;;;;2.8;2.2;;;;;;;-0.51;62.84375;95448.4;;;;
2022/02/24 04:08:17;;;;;;;2.6;2;;;;;;;-0.57;62.58398;95439.28;;;;
2022/02/24 04:09:18;;;;;;;2.6;2;;;;;;;-0.57;62.58398;95439.28;;;;
2022/02/24 04:10:19;;;;;;;2.6;2;;;;;;;-0.57;62.58398;95439.28;;;;
2022/02/24 04:11:19;;;;;;;2.6;2;;;;;;;-0.57;62.58398;95439.28;;;;
2022/02/24 04:12:21;;;;;;;2.6;2;;;;;;;-0.57;62.58398;95439.28;;;;
2022/02/24 04:13:21;;;;;;;2.6;2;;;;;;;-0.57;62.58398;95439.28;;;;
2022/02/24 04:14:22;;;;;;;2.6;2;;;;;;;-0.57;62.58398;95439.28;;;;
2022/02/24 04:15:23;;;;;;;2.6;2;;;;;;;-0.57;62.58398;95439.28;;;;
2022/02/24 04:16:23;;;;;;;2.6;2;;;;;;;-0.57;62.58398;95439.28;;;;
2022/02/24 04:17:24;;;;;;;2.6;2;;;;;;;-0.57;62.58398;95439.28;;;;
2022/02/24 04:18:24;;;;;;;2.6;2;;;;;;;-0.57;62.58398;95439.28;;;;
2022/02/24 04:19:25;;;;;;;3.25;2.15;;;;;;;-0.67;62.4541;95428.92;;;;
2022/02/24 04:20:25;;;;;;;3.25;2.15;;;;;;;-0.67;62.4541;95428.92;;;;
2022/02/24 04:21:26;;;;;;;3.25;2.15;;;;;;;-0.67;62.4541;95428.92;;;;
2022/02/24 04:22:26;;;;;;;3.25;2.15;;;;;;;-0.67;62.4541;95428.92;;;;
2022/02/24 04:23:27;;;;;;;3.25;2.15;;;;;;;-0.67;62.4541;95428.92;;;;
2022/02/24 04:24:27;;;;;;;3.25;2.15;;;;;;;-0.67;62.4541;95428.92;;;;
2022/02/24 04:25:28;;;;;;;3.25;2.15;;;;;;;-0.67;62.4541;95428.92;;;;
2022/02/24 04:26:29;;;;;;;3.25;2.15;;;;;;;-0.67;62.4541;95428.92;;;;
2022/02/24 04:27:30;;;;;;;3.25;2.15;;;;;;;-0.67;62.4541;95428.92;;;;
2022/02/24 04:28:31;;;;;;;3.25;2.15;;;;;;;-0.67;62.4541;95428.92;;;;
2022/02/24 04:29:31;;;;;;;2.55;2.3;;;;;;;-0.73;62.41406;95402.15;;;;
2022/02/24 04:30:32;;;;;;;2.55;2.3;;;;;;;-0.73;62.41406;95402.15;;;;
2022/02/24 04:31:33;;;;;;;2.55;2.3;;;;;;;-0.73;62.41406;95402.15;;;;
2022/02/24 04:32:33;;;;;;;2.55;2.3;;;;;;;-0.73;62.41406;95402.15;;;;
2022/02/24 04:33:34;;;;;;;2.55;2.3;;;;;;;-0.73;62.41406;95402.15;;;;
2022/02/24 04:34:34;;;;;;;2.55;2.3;;;;;;;-0.73;62.41406;95402.15;;;;
2022/02/24 04:35:35;;;;;;;2.55;2.3;;;;;;;-0.73;62.41406;95402.15;;;;
2022/02/24 04:36:36;;;;;;;2.55;2.3;;;;;;;-0.73;62.41406;95402.15;;;;
2022/02/24 04:37:36;;;;;;;2.55;2.3;;;;;;;-0.73;62.41406;95402.15;;;;
2022/02/24 04:38:37;;;;;;;2.55;2.3;;;;;;;-0.73;62.41406;95402.15;;;;
2022/02/24 04:39:37;;;;;;;2.55;2.3;;;;;;;-0.73;62.41406;95402.15;;;;
2022/02/24 04:40:38;;;;;;;2.55;2.3;;;;;;;-0.73;62.41406;95402.15;;;;
2022/02/24 04:41:38;;;;;;;2.55;2.3;;;;;;;-0.73;62.41406;95402.15;;;;
2022/02/24 04:42:39;;;;;;;2.55;2.3;;;;;;;-0.73;62.41406;95402.15;;;;
2022/02/24 04:43:40;;;;;;;2.55;2.3;;;;;;;-0.73;62.41406;95402.15;;;;
2022/02/24 04:44:40;;;;;;;2.55;2.3;;;;;;;-0.73;62.41406;95402.15;;;;
2022/02/24 04:45:41;;;;;;;2.55;2.3;;;;;;;-0.73;62.41406;95402.15;;;;
2022/02/24 04:46:41;;;;;;;2.55;2.3;;;;;;;-0.73;62.41406;95402.15;;;;
2022/02/24 04:47:42;;;;;;;2.55;2.3;;;;;;;-0.73;62.41406;95402.15;;;;
2022/02/24 04:48:42;;;;;;;2.55;2.3;;;;;;;-0.73;62.41406;95402.15;;;;
2022/02/24 04:49:43;;;;;;;2.55;2.3;;;;;;;-0.73;62.41406;95402.15;;;;
2022/02/24 04:50:43;;;;;;;2.9;2.4;;;;;;;-0.84;62.375;95394.58;;;;
2022/02/24 04:51:44;;;;;;;2.9;2.4;;;;;;;-0.84;62.375;95394.58;;;;
2022/02/24 04:52:44;;;;;;;2.9;2.4;;;;;;;-0.84;62.375;95394.58;;;;
2022/02/24 04:53:46;;;;;;;2.9;2.4;;;;;;;-0.84;62.375;95394.58;;;;
2022/02/24 04:54:46;;;;;;;2.9;2.4;;;;;;;-0.84;62.375;95394.58;;;;
2022/02/24 04:55:47;;;;;;;2.9;2.4;;;;;;;-0.84;62.375;95394.58;;;;
2022/02/24 04:56:48;;;;;;;2.9;2.4;;;;;;;-0.84;62.375;95394.58;;;;
2022/02/24 04:57:49;;;;;;;2.9;2.4;;;;;;;-0.84;62.375;95394.58;;;;
2022/02/24 04:58:49;;;;;;;2.9;2.4;;;;;;;-0.84;62.375;95394.58;;;;
2022/02/24 04:59:50;;;;;;;2.9;2.4;;;;;;;-0.84;62.375;95394.58;;;;
2022/02/24 05:00:50;;;;;;;2.9;2.4;;;;;;;-0.84;62.375;95394.58;;;;
2022/02/24 05:01:51;;;;;;;4.400001;2.2;;;;;;;-0.93;62.42578;95384.06;;;;
2022/02/24 05:02:51;;;;;;;4.400001;2.2;;;;;;;-0.93;62.42578;95384.06;;;;
2022/02/24 05:03:52;;;;;;;4.400001;2.2;;;;;;;-0.93;62.42578;95384.06;;;;
2022/02/24 05:04:52;;;;;;;4.400001;2.2;;;;;;;-0.93;62.42578;95384.06;;;;
2022/02/24 05:05:53;;;;;;;4.400001;2.2;;;;;;;-0.93;62.42578;95384.06;;;;
2022/02/24 05:06:53;;;;;;;4.400001;2.2;;;;;;;-0.93;62.42578;95384.06;;;;
2022/02/24 05:07:54;;;;;;;4.400001;2.2;;;;;;;-0.93;62.42578;95384.06;;;;
2022/02/24 05:08:54;;;;;;;4.400001;2.2;;;;;;;-0.93;62.42578;95384.06;;;;
2022/02/24 05:09:54;;;;;;;4.400001;2.2;;;;;;;-0.93;62.42578;95384.06;;;;
2022/02/24 05:10:55;;;;;;;4.400001;2.2;;;;;;;-0.93;62.42578;95384.06;;;;
2022/02/24 05:11:56;;;;;;;4.400001;2.2;;;;;;;-0.93;62.42578;95384.06;;;;
2022/02/24 05:12:56;;;;;;;4.75;2.3;;;;;;;-0.98;62.41895;95378.85;;;;
2022/02/24 05:13:57;;;;;;;4.75;2.3;;;;;;;-0.98;62.41895;95378.85;;;;
2022/02/24 05:14:57;;;;;;;4.75;2.3;;;;;;;-0.98;62.41895;95378.85;;;;
2022/02/24 05:15:58;;;;;;;4.75;2.3;;;;;;;-0.98;62.41895;95378.85;;;;
2022/02/24 05:16:58;;;;;;;4.75;2.3;;;;;;;-0.98;62.41895;95378.85;;;;
2022/02/24 05:17:59;;;;;;;4.75;2.3;;;;;;;-0.98;62.41895;95378.85;;;;
2022/02/24 05:18:59;;;;;;;4.75;2.3;;;;;;;-0.98;62.41895;95378.85;;;;
2022/02/24 05:20:00;;;;;;;4.75;2.3;;;;;;;-0.98;62.41895;95378.85;;;;
2022/02/24 05:21:01;;;;;;;4.75;2.3;;;;;;;-0.98;62.41895;95378.85;;;;
2022/02/24 05:22:01;;;;;;;4.75;2.3;;;;;;;-0.98;62.41895;95378.85;;;;
2022/02/24 05:23:02;;;;;;;3.15;2.2;;;;;;;-1;62.4248;95361.44;;;;
2022/02/24 05:24:02;;;;;;;3.15;2.2;;;;;;;-1;62.4248;95361.44;;;;
2022/02/24 05:25:04;;;;;;;3.15;2.2;;;;;;;-1;62.4248;95361.44;;;;
2022/02/24 05:26:05;;;;;;;3.15;2.2;;;;;;;-1;62.4248;95361.44;;;;
2022/02/24 05:27:05;;;;;;;3.15;2.2;;;;;;;-1;62.4248;95361.44;;;;
2022/02/24 05:28:06;;;;;;;3.15;2.2;;;;;;;-1;62.4248;95361.44;;;;
2022/02/24 05:29:08;;;;;;;3.15;2.2;;;;;;;-1;62.4248;95361.44;;;;
2022/02/24 05:30:09;;;;;;;3.15;2.2;;;;;;;-1;62.4248;95361.44;;;;
2022/02/24 05:31:12;;;;;;;3.15;2.2;;;;;;;-1;62.4248;95361.44;;;;
2022/02/24 05:32:12;;;;;;;3.15;2.2;;;;;;;-1;62.4248;95361.44;;;;
2022/02/24 05:33:15;;;;;;;3.15;2.2;;;;;;;-1;62.4248;95361.44;;;;
2022/02/24 05:34:15;;;;;;;2.65;2.4;;;;;;;-0.92;62.32227;95361.47;;;;
2022/02/24 05:35:16;;;;;;;2.65;2.4;;;;;;;-0.92;62.32227;95361.47;;;;
2022/02/24 05:36:16;;;;;;;2.65;2.4;;;;;;;-0.92;62.32227;95361.47;;;;
2022/02/24 05:37:17;;;;;;;2.65;2.4;;;;;;;-0.92;62.32227;95361.47;;;;
2022/02/24 05:38:18;;;;;;;2.65;2.4;;;;;;;-0.92;62.32227;95361.47;;;;
2022/02/24 05:39:19;;;;;;;2.65;2.4;;;;;;;-0.92;62.32227;95361.47;;;;
2022/02/24 05:40:20;;;;;;;2.65;2.4;;;;;;;-0.92;62.32227;95361.47;;;;
2022/02/24 05:41:20;;;;;;;2.65;2.4;;;;;;;-0.92;62.32227;95361.47;;;;
2022/02/24 05:42:21;;;;;;;2.65;2.4;;;;;;;-0.92;62.32227;95361.47;;;;
2022/02/24 05:43:22;;;;;;;2.65;2.4;;;;;;;-0.92;62.32227;95361.47;;;;
2022/02/24 05:44:23;;;;;;;5.1;2.6;;;;;;;-0.86;62.23633;95354.19;;;;
2022/02/24 05:45:23;;;;;;;5.1;2.6;;;;;;;-0.86;62.23633;95354.19;;;;
2022/02/24 05:46:24;;;;;;;5.1;2.6;;;;;;;-0.86;62.23633;95354.19;;;;